CheckWX is a tool to help pilots better visualize weather data.  It is not intended as a substitute for an official pre-flight weather briefing.

06:08:28 UTC

KABQ METAR
Albuquerque International Sunport Airport
Albuquerque, New Mexico, USA
Current

1 hour ago

KABQ 200452Z 31003KT 10SM FEW040 BKN110 M03/M08 A2985 RMK AO2 SLP132 MTN TOPS OBSC NE-SE T10281078
Observed
Feb-20 @ 04:52 UTC
Wind
  • 310° at 3 KTS
Visibility
16,093 meters
Flight Rules
VFR
Cloud Levels
  • Few at 4,000' AGL
  • Broken at 11,000' AGL
Temperature
-3°C / 27°F
Dewpoint
-8°C / 18°F
Humidity
69%
Altimeter
29.85" Hg
Pressure
1013.2 hPa
Previous

2 hours ago

KABQ 200352Z 35005KT 10SM FEW040 SCT140 M03/M08 A2983 RMK AO2 SLP131 MTN TOPS OBSC NE-SE T10281078
Observed
Feb-20 @ 03:52 UTC
Wind
  • 350° at 5 KTS
Visibility
16,093 meters
Flight Rules
VFR
Cloud Levels
  • Few at 4,000' AGL
  • Scattered at 14,000' AGL
Temperature
-3°C / 27°F
Dewpoint
-8°C / 18°F
Humidity
69%
Altimeter
29.83" Hg
Pressure
1013.1 hPa
Previous

3 hours ago

KABQ 200252Z 32010KT 10SM FEW035 FEW055 M02/M08 A2982 RMK AO2 SLP121 MTNS OBSC NE-SE T10171083 52014
Observed
Feb-20 @ 02:52 UTC
Wind
  • 320° at 10 KTS
Visibility
16,093 meters
Flight Rules
VFR
Cloud Levels
  • Few at 3,500' AGL
  • Few at 5,500' AGL
Temperature
-2°C / 28°F
Dewpoint
-8°C / 18°F
Humidity
64%
Altimeter
29.82" Hg
Pressure
1012.1 hPa